Time;durP1;ratioP1;P1;durP2;ratioP2;P2;SDS_P1;SDS_P2;PMS_P1;PMS_P2;Temp;Humidity;BMP_temperature;BMP_pressure;BME280_temperature;BME280_humidity;BME280_pressure;Samples;Min_cycle;Max_cycle;Signal;HPM_P1;HPM_P2
2021/07/26 00:00:49;;;;;;;25.13;19.02;;;23.50;71.00;;;;;;4992658;28;20031;-74
2021/07/26 00:03:15;;;;;;;25.85;18.75;;;23.50;71.00;;;;;;4992519;28;20026;-74
2021/07/26 00:05:41;;;;;;;22.83;18.75;;;23.50;71.80;;;;;;4992573;28;20097;-74
2021/07/26 00:08:07;;;;;;;22.92;19.23;;;23.50;71.40;;;;;;4992487;28;20033;-74
2021/07/26 00:10:34;;;;;;;26.13;19.90;;;23.50;71.60;;;;;;4992385;28;20015;-74
2021/07/26 00:13:01;;;;;;;28.48;20.55;;;23.60;71.80;;;;;;4992514;28;20015;-74
2021/07/26 00:15:29;;;;;;;22.15;18.65;;;23.60;72.00;;;;;;4992458;28;20042;-74
2021/07/26 00:17:55;;;;;;;24.63;19.75;;;23.60;72.10;;;;;;4992429;28;20029;-74
2021/07/26 00:20:21;;;;;;;26.30;20.38;;;23.60;72.40;;;;;;4992207;28;20023;-74
2021/07/26 00:22:46;;;;;;;27.65;21.15;;;23.60;72.70;;;;;;4992986;28;20044;-75
2021/07/26 00:25:12;;;;;;;27.88;21.15;;;23.60;73.00;;;;;;4992210;28;20030;-74
2021/07/26 00:27:38;;;;;;;29.05;20.23;;;23.60;73.20;;;;;;4992211;28;20113;-74
2021/07/26 00:30:05;;;;;;;23.40;19.85;;;23.60;73.50;;;;;;4992578;28;20097;-75
2021/07/26 00:32:30;;;;;;;24.40;20.25;;;23.60;73.80;;;;;;4992562;28;20053;-75
2021/07/26 00:34:56;;;;;;;25.75;19.13;;;23.60;74.10;;;;;;4992588;28;20062;-74
2021/07/26 00:37:29;;;;;;;23.10;20.08;;;23.60;74.20;;;;;;4992346;28;20533;-74
2021/07/26 00:39:54;;;;;;;25.67;20.80;;;23.60;74.40;;;;;;4992498;28;20049;-74
2021/07/26 00:42:21;;;;;;;25.77;20.42;;;23.60;74.60;;;;;;4992357;28;20030;-74
2021/07/26 00:44:46;;;;;;;28.27;20.30;;;23.60;74.80;;;;;;4992344;28;20079;-74
2021/07/26 00:47:12;;;;;;;25.13;20.20;;;23.60;74.90;;;;;;4992334;28;20461;-74
2021/07/26 00:49:39;;;;;;;26.98;20.80;;;23.60;75.10;;;;;;4992402;28;20061;-74
2021/07/26 00:52:06;;;;;;;24.77;19.92;;;23.60;75.20;;;;;;4991978;28;20050;-74
2021/07/26 00:54:35;;;;;;;25.77;20.15;;;23.60;75.40;;;;;;4992417;28;20089;-74
2021/07/26 00:57:04;;;;;;;24.80;20.35;;;23.60;75.70;;;;;;4992166;28;20046;-74
2021/07/26 00:59:30;;;;;;;21.85;18.25;;;23.60;76.00;;;;;;4993627;28;20051;-74
2021/07/26 01:01:57;;;;;;;24.70;20.55;;;23.60;76.10;;;;;;4993089;28;20030;-74
2021/07/26 01:04:23;;;;;;;27.88;20.23;;;23.60;76.40;;;;;;4995885;28;20038;-74
2021/07/26 01:06:49;;;;;;;26.58;20.52;;;23.60;76.60;;;;;;4995728;28;20026;-74
2021/07/26 01:09:15;;;;;;;25.15;20.52;;;23.60;76.60;;;;;;4995924;28;20019;-73
2021/07/26 01:11:43;;;;;;;25.00;19.77;;;23.60;76.80;;;;;;4978569;28;20031;-74
2021/07/26 01:14:09;;;;;;;25.55;19.92;;;23.60;76.90;;;;;;4995744;28;20145;-75
2021/07/26 01:16:35;;;;;;;26.73;19.42;;;23.60;76.90;;;;;;4995489;28;20117;-76
2021/07/26 01:19:01;;;;;;;24.35;18.88;;;23.60;76.90;;;;;;4995598;28;20481;-76
2021/07/26 01:21:28;;;;;;;26.13;19.70;;;23.50;77.00;;;;;;4995846;28;20026;-76
2021/07/26 01:23:55;;;;;;;27.95;19.90;;;23.50;77.10;;;;;;4996791;28;20172;-75
2021/07/26 01:26:24;;;;;;;24.27;19.75;;;23.50;77.10;;;;;;4996001;28;20041;-74
2021/07/26 01:28:53;;;;;;;28.48;20.92;;;23.50;77.20;;;;;;4995422;28;20026;-73
2021/07/26 01:31:19;;;;;;;28.42;20.40;;;23.50;77.20;;;;;;4995294;28;20524;-74
2021/07/26 01:33:47;;;;;;;27.33;19.27;;;23.50;77.20;;;;;;4995399;28;20102;-74
2021/07/26 01:36:14;;;;;;;25.30;20.48;;;23.50;77.00;;;;;;4995265;28;20023;-74
2021/07/26 01:38:41;;;;;;;31.27;21.00;;;23.60;77.00;;;;;;4995251;28;20034;-74
2021/07/26 01:41:08;;;;;;;30.45;18.73;;;23.50;76.80;;;;;;4995114;28;20077;-74
2021/07/26 01:43:35;;;;;;;25.45;17.35;;;23.60;76.60;;;;;;4994921;28;20018;-74
2021/07/26 01:46:11;;;;;;;25.80;16.85;;;23.60;76.40;;;;;;4994944;28;20022;-74
2021/07/26 01:48:43;;;;;;;19.35;15.90;;;23.60;76.20;;;;;;4994955;28;20030;-74
2021/07/26 01:51:15;;;;;;;19.63;15.50;;;23.60;75.90;;;;;;4995046;28;20050;-74
2021/07/26 01:53:43;;;;;;;20.08;15.27;;;23.70;75.60;;;;;;4994782;28;20030;-75
2021/07/26 01:56:10;;;;;;;16.40;14.63;;;23.70;75.20;;;;;;4994961;28;20073;-75
2021/07/26 01:58:36;;;;;;;22.83;14.57;;;23.70;74.90;;;;;;4994846;28;20433;-75
2021/07/26 02:01:02;;;;;;;20.05;14.63;;;23.70;74.70;;;;;;4994745;28;20022;-75
2021/07/26 02:03:30;;;;;;;19.52;14.73;;;23.80;74.70;;;;;;4977235;28;20034;-75
2021/07/26 02:05:57;;;;;;;19.83;16.02;;;23.80;74.60;;;;;;4994593;28;20061;-74
2021/07/26 02:08:22;;;;;;;22.83;17.50;;;23.80;74.60;;;;;;4994375;28;20069;-74
2021/07/26 02:10:48;;;;;;;21.80;17.02;;;23.80;74.50;;;;;;4994484;28;20031;-74
2021/07/26 02:13:14;;;;;;;17.50;15.70;;;23.70;74.50;;;;;;4977361;28;20030;-74
2021/07/26 02:15:40;;;;;;;18.52;15.02;;;23.70;74.50;;;;;;4994424;28;20037;-74
2021/07/26 02:18:06;;;;;;;19.33;14.85;;;23.70;74.50;;;;;;4976844;28;20038;-75
2021/07/26 02:20:32;;;;;;;24.60;16.17;;;23.70;74.80;;;;;;4976781;28;20027;-75
2021/07/26 02:22:57;;;;;;;21.67;16.73;;;23.70;74.50;;;;;;4994172;28;20101;-75
2021/07/26 02:25:23;;;;;;;25.40;17.52;;;23.80;74.50;;;;;;4994103;28;20027;-75
2021/07/26 02:27:49;;;;;;;27.70;18.00;;;23.80;74.40;;;;;;4994159;28;20484;-75
2021/07/26 02:30:15;;;;;;;26.73;17.80;;;23.80;74.40;;;;;;4994044;28;20520;-74
2021/07/26 02:32:41;;;;;;;24.70;17.02;;;23.80;75.10;;;;;;4976549;28;20030;-74
2021/07/26 02:35:07;;;;;;;20.73;16.08;;;23.80;74.40;;;;;;4993876;28;20026;-74
2021/07/26 02:37:33;;;;;;;25.15;15.77;;;23.90;74.50;;;;;;4993972;28;20092;-74
2021/07/26 02:39:59;;;;;;;19.50;15.60;;;24.00;74.40;;;;;;4994118;28;20105;-74
2021/07/26 02:42:26;;;;;;;34.83;22.45;;;24.20;74.20;;;;;;4976621;28;20468;-74
2021/07/26 02:44:51;;;;;;;30.98;20.48;;;24.30;73.90;;;;;;4993859;28;20072;-74
2021/07/26 02:47:17;;;;;;;19.17;15.45;;;24.50;73.50;;;;;;4993788;28;20113;-74
2021/07/26 02:49:43;;;;;;;19.25;14.98;;;24.60;72.90;;;;;;4993721;28;20033;-74
2021/07/26 02:52:08;;;;;;;18.48;14.25;;;24.60;72.50;;;;;;4993534;28;20057;-74
2021/07/26 02:54:34;;;;;;;20.23;15.02;;;24.50;72.30;;;;;;4993631;28;20036;-74
2021/07/26 02:57:00;;;;;;;20.27;17.25;;;24.50;72.30;;;;;;4993521;28;20030;-74
2021/07/26 02:59:26;;;;;;;20.00;16.50;;;24.50;72.50;;;;;;4976117;28;20385;-74
2021/07/26 03:01:51;;;;;;;25.05;16.30;;;24.50;72.80;;;;;;4993840;28;20026;-74
2021/07/26 03:04:18;;;;;;;21.17;15.85;;;24.50;72.80;;;;;;4993626;28;20163;-74
2021/07/26 03:06:43;;;;;;;21.35;17.25;;;24.60;72.70;;;;;;4993452;28;20022;-74
2021/07/26 03:09:09;;;;;;;17.15;14.10;;;24.60;72.70;;;;;;4993317;28;20019;-75
2021/07/26 03:11:36;;;;;;;23.40;16.02;;;24.70;72.60;;;;;;4992931;28;20105;-75
2021/07/26 03:14:03;;;;;;;28.33;15.00;;;24.70;72.60;;;;;;4993247;28;20018;-75
2021/07/26 03:16:29;;;;;;;23.13;14.85;;;24.70;72.50;;;;;;4993233;28;20421;-76
2021/07/26 03:18:55;;;;;;;20.75;16.05;;;24.60;72.60;;;;;;4975688;28;20381;-75
2021/07/26 03:21:20;;;;;;;22.65;16.00;;;24.70;72.90;;;;;;4993059;28;20042;-75
2021/07/26 03:23:46;;;;;;;19.85;15.73;;;24.60;73.00;;;;;;4992732;28;20026;-76
2021/07/26 03:26:12;;;;;;;19.98;14.68;;;24.60;73.10;;;;;;4991656;28;20105;-76
2021/07/26 03:28:38;;;;;;;18.50;13.73;;;24.60;73.20;;;;;;4975554;28;20053;-75
2021/07/26 03:31:04;;;;;;;17.27;14.15;;;24.70;73.30;;;;;;4992985;28;20022;-74
2021/07/26 03:33:30;;;;;;;25.92;16.48;;;24.70;73.30;;;;;;4992871;28;20076;-74
2021/07/26 03:35:56;;;;;;;18.42;13.98;;;24.80;73.10;;;;;;4993131;28;20034;-75
2021/07/26 03:38:23;;;;;;;24.00;14.57;;;25.00;73.00;;;;;;4992826;28;20031;-75
2021/07/26 03:40:49;;;;;;;22.67;16.30;;;25.10;72.70;;;;;;4992672;28;20030;-76
2021/07/26 03:43:16;;;;;;;23.73;15.43;;;25.30;72.60;;;;;;4992829;28;20488;-76
2021/07/26 03:45:42;;;;;;;22.52;14.52;;;25.50;72.10;;;;;;4992726;28;20023;-76
2021/07/26 03:48:07;;;;;;;20.10;12.45;;;25.70;71.70;;;;;;4992712;28;20025;-76
2021/07/26 03:50:34;;;;;;;18.38;13.40;;;25.90;70.80;;;;;;4992429;28;20505;-74
2021/07/26 03:53:00;;;;;;;17.08;12.30;;;26.10;70.10;;;;;;4992671;28;20504;-76
2021/07/26 03:55:32;;;;;;;23.05;12.27;;;26.20;69.60;;;;;;4992532;28;20030;-76
2021/07/26 03:57:59;;;;;;;19.42;11.38;;;26.40;69.10;;;;;;4992505;28;20105;-76
2021/07/26 04:00:26;;;;;;;17.75;11.82;;;26.70;68.90;;;;;;4992545;28;20057;-76
2021/07/26 04:08:11;;;;;;;25.73;12.80;;;29.50;64.80;;;;;;4992271;28;20461;-76
2021/07/26 04:10:40;;;;;;;;;;;30.40;63.20;;;;;;4992506;28;20014;-76
2021/07/26 04:13:06;;;;;;;26.20;11.55;;;31.40;62.80;;;;;;4992240;28;19906;-76
2021/07/26 04:15:31;;;;;;;19.60;11.20;;;32.00;60.50;;;;;;4992195;28;20049;-77
2021/07/26 04:17:57;;;;;;;21.33;10.50;;;32.80;58.70;;;;;;4991973;28;20034;-76
2021/07/26 04:20:23;;;;;;;20.15;10.63;;;33.70;56.60;;;;;;4974501;28;20022;-77
2021/07/26 04:22:49;;;;;;;25.65;10.50;;;34.70;54.80;;;;;;4992264;28;20033;-75
2021/07/26 04:25:14;;;;;;;28.13;13.25;;;35.60;53.20;;;;;;4992143;28;20076;-75
2021/07/26 04:27:40;;;;;;;14.98;10.15;;;36.30;51.60;;;;;;4991908;28;20065;-75
2021/07/26 04:30:07;;;;;;;10.95;9.27;;;36.90;50.20;;;;;;4992205;28;20480;-75
2021/07/26 04:32:47;;;;;;;13.43;9.80;;;37.40;49.30;;;;;;4991719;28;20054;-75
2021/07/26 04:35:14;;;;;;;11.73;9.20;;;38.00;47.70;;;;;;4974485;28;20031;-75
2021/07/26 04:37:40;;;;;;;17.42;10.13;;;38.60;47.40;;;;;;4995569;28;20038;-75
2021/07/26 04:40:10;;;;;;;16.13;10.07;;;39.10;46.60;;;;;;4995734;28;20023;-75
2021/07/26 04:42:38;;;;;;;17.17;10.02;;;39.40;45.50;;;;;;4995518;28;20105;-75
2021/07/26 04:45:06;;;;;;;16.85;10.07;;;39.60;45.30;;;;;;4995687;28;20030;-76
2021/07/26 04:47:31;;;;;;;16.60;9.63;;;39.80;45.00;;;;;;4995315;28;20026;-77
2021/07/26 04:49:57;;;;;;;17.85;10.50;;;40.00;44.50;;;;;;4977928;28;20026;-74
2021/07/26 04:52:23;;;;;;;15.02;9.80;;;40.10;44.30;;;;;;4994924;28;20050;-76
2021/07/26 04:54:48;;;;;;;14.20;9.88;;;40.40;44.10;;;;;;4995349;28;20027;-76
2021/07/26 04:57:14;;;;;;;16.48;9.93;;;40.70;43.90;;;;;;4994745;28;20026;-79
2021/07/26 04:59:40;;;;;;;21.92;10.77;;;41.10;43.40;;;;;;4995064;28;20465;-79
2021/07/26 05:02:06;;;;;;;16.52;9.88;;;41.50;43.10;;;;;;4995259;28;20472;-78
2021/07/26 05:04:31;;;;;;;18.67;9.77;;;41.70;42.50;;;;;;4995407;28;20461;-75
2021/07/26 05:07:03;;;;;;;10.48;8.10;;;41.60;42.60;;;;;;4994578;28;20034;-76
2021/07/26 05:09:30;;;;;;;19.33;8.52;;;41.40;42.60;;;;;;4994105;28;20034;-75
2021/07/26 05:12:01;;;;;;;11.13;8.15;;;41.50;43.00;;;;;;4994370;28;20023;-76
2021/07/26 05:14:27;;;;;;;11.88;8.05;;;41.70;43.00;;;;;;4994360;28;20502;-76
2021/07/26 05:16:53;;;;;;;13.32;8.25;;;42.00;42.60;;;;;;4994155;28;20054;-76
2021/07/26 05:19:18;;;;;;;13.45;8.23;;;42.10;42.30;;;;;;4994384;28;20057;-76
2021/07/26 05:21:44;;;;;;;13.98;8.90;;;42.50;42.10;;;;;;4994043;28;20030;-76
2021/07/26 05:24:10;;;;;;;10.82;8.40;;;42.80;41.90;;;;;;4993992;28;20026;-76
2021/07/26 05:26:35;;;;;;;12.55;8.55;;;43.20;41.60;;;;;;4992905;28;20038;-76
2021/07/26 05:29:01;;;;;;;10.18;8.02;;;43.30;41.10;;;;;;4993514;28;20026;-76
2021/07/26 05:31:27;;;;;;;15.90;8.60;;;43.70;40.90;;;;;;4993982;28;20037;-76
2021/07/26 05:33:52;;;;;;;12.77;8.15;;;44.10;40.40;;;;;;4993905;28;20495;-77
2021/07/26 05:36:23;;;;;;;13.43;8.10;;;44.30;40.10;;;;;;4975856;28;20053;-77
2021/07/26 05:38:48;;;;;;;;;;;44.70;39.60;;;;;;4976821;28;20030;-75
2021/07/26 05:41:14;;;;;;;14.88;8.38;;;44.90;40.00;;;;;;4993377;28;19918;-75
2021/07/26 05:43:39;;;;;;;16.65;9.50;;;45.30;39.10;;;;;;4994103;28;20075;-77
2021/07/26 05:46:05;;;;;;;24.00;8.65;;;45.40;38.70;;;;;;4993628;28;20026;-75
2021/07/26 05:48:31;;;;;;;13.52;8.45;;;45.40;38.40;;;;;;4993095;28;20070;-75
2021/07/26 05:50:56;;;;;;;13.73;9.15;;;45.50;37.80;;;;;;4993392;28;20057;-75
2021/07/26 05:53:22;;;;;;;11.85;8.35;;;45.20;37.70;;;;;;4994820;28;20033;-83
2021/07/26 05:55:48;;;;;;;16.67;9.15;;;45.10;38.10;;;;;;4978506;28;20058;-80
2021/07/26 05:58:14;;;;;;;14.35;9.95;;;44.90;38.00;;;;;;4995337;28;20037;-81
2021/07/26 06:00:45;;;;;;;16.02;10.07;;;44.90;37.90;;;;;;4994409;28;20485;-78
2021/07/26 06:03:11;;;;;;;19.27;11.75;;;44.70;37.90;;;;;;4994533;28;20018;-80
2021/07/26 06:05:37;;;;;;;23.58;10.65;;;44.90;38.00;;;;;;4994025;28;20153;-76
2021/07/26 06:08:03;;;;;;;21.98;11.18;;;45.00;37.90;;;;;;4993940;28;20734;-80
2021/07/26 06:10:29;;;;;;;21.90;12.15;;;45.30;37.60;;;;;;4977022;28;20034;-80
2021/07/26 06:12:55;;;;;;;29.05;12.13;;;45.60;37.30;;;;;;4994390;28;20023;-80
2021/07/26 06:15:21;;;;;;;20.17;11.25;;;45.80;37.20;;;;;;4994371;28;20109;-83
2021/07/26 06:17:47;;;;;;;21.23;11.60;;;45.80;37.10;;;;;;4994800;28;20037;-81
2021/07/26 06:20:13;;;;;;;20.77;12.60;;;45.70;36.90;;;;;;4995037;28;20464;-82
2021/07/26 06:22:39;;;;;;;32.78;12.57;;;45.70;36.60;;;;;;4994642;28;20034;-81
2021/07/26 06:25:09;;;;;;;22.33;11.82;;;45.80;36.50;;;;;;4994056;28;20507;-83
2021/07/26 06:27:38;;;;;;;30.40;12.48;;;45.90;36.60;;;;;;4997469;28;20084;-83
2021/07/26 06:30:05;;;;;;;21.33;12.40;;;46.10;36.40;;;;;;4995931;28;20033;-84
2021/07/26 06:32:32;;;;;;;26.58;13.18;;;46.30;36.50;;;;;;4997319;28;20034;-83
2021/07/26 06:34:58;;;;;;;39.30;13.32;;;46.20;36.30;;;;;;4995972;28;20024;-79
2021/07/26 06:37:24;;;;;;;30.20;12.35;;;46.10;36.10;;;;;;4993334;28;20516;-80
2021/07/26 06:39:50;;;;;;;28.67;13.10;;;46.20;36.20;;;;;;4993131;28;20073;-79
2021/07/26 06:42:18;;;;;;;39.53;12.65;;;46.10;36.00;;;;;;4993081;28;20057;-79
2021/07/26 06:44:44;;;;;;;40.15;12.00;;;46.00;35.70;;;;;;4993133;28;20496;-79
2021/07/26 06:47:10;;;;;;;46.58;12.10;;;45.80;35.70;;;;;;4992944;28;20129;-78
2021/07/26 06:49:36;;;;;;;48.97;13.90;;;45.90;35.60;;;;;;4992896;28;20097;-79
2021/07/26 06:52:03;;;;;;;62.97;14.23;;;46.10;35.60;;;;;;4992712;28;20085;-78
2021/07/26 06:54:28;;;;;;;45.10;13.73;;;46.20;35.10;;;;;;4992619;28;20109;-79
2021/07/26 06:56:54;;;;;;;33.13;14.30;;;46.40;35.00;;;;;;4992917;28;20112;-80
2021/07/26 06:59:20;;;;;;;50.00;14.15;;;46.40;34.80;;;;;;4991473;28;20033;-80
2021/07/26 07:01:46;;;;;;;42.83;14.93;;;46.50;34.60;;;;;;4992584;28;20030;-80
2021/07/26 07:04:13;;;;;;;31.95;11.15;;;46.60;34.70;;;;;;4992654;28;20058;-78
2021/07/26 07:06:40;;;;;;;23.40;9.65;;;46.60;34.70;;;;;;5005185;28;20022;-78
2021/07/26 07:09:05;;;;;;;16.20;10.05;;;46.70;34.70;;;;;;4994661;28;20027;-79
2021/07/26 07:11:31;;;;;;;15.93;9.85;;;46.40;36.20;;;;;;4991948;28;20072;-79
2021/07/26 07:13:57;;;;;;;16.55;10.23;;;46.20;37.40;;;;;;4992257;28;20041;-78
2021/07/26 07:16:24;;;;;;;15.35;9.48;;;45.90;37.80;;;;;;4992018;28;20092;-79
2021/07/26 07:18:55;;;;;;;19.38;9.25;;;45.90;38.00;;;;;;4992366;28;20022;-77
2021/07/26 07:21:24;;;;;;;20.17;9.05;;;45.90;37.90;;;;;;4992505;28;20019;-79
2021/07/26 07:23:51;;;;;;;14.15;10.07;;;45.90;38.10;;;;;;4992094;28;20424;-82
2021/07/26 07:26:18;;;;;;;15.27;8.82;;;45.90;38.30;;;;;;4992022;28;20022;-81
2021/07/26 07:28:46;;;;;;;14.13;9.05;;;45.80;38.50;;;;;;4992175;28;20540;-79
2021/07/26 07:31:15;;;;;;;21.55;10.25;;;45.70;38.60;;;;;;4992252;28;20026;-81
2021/07/26 07:33:41;;;;;;;21.40;10.32;;;45.30;38.80;;;;;;4992257;28;20476;-83
2021/07/26 07:36:07;;;;;;;19.15;10.15;;;44.90;39.20;;;;;;4991803;28;20034;-75
2021/07/26 07:38:33;;;;;;;18.65;9.70;;;44.70;39.10;;;;;;4991552;28;20022;-75
2021/07/26 07:41:00;;;;;;;17.38;10.07;;;44.40;39.10;;;;;;4991207;28;20026;-76
2021/07/26 07:43:26;;;;;;;18.98;10.30;;;43.90;39.30;;;;;;4991380;28;20105;-75
2021/07/26 07:45:54;;;;;;;24.33;10.00;;;43.40;39.80;;;;;;4991540;28;20326;-74
2021/07/26 07:48:20;;;;;;;17.80;10.32;;;43.00;40.10;;;;;;4991602;28;20153;-75
2021/07/26 07:50:46;;;;;;;24.60;10.00;;;42.90;40.40;;;;;;4991240;28;20104;-74
2021/07/26 07:53:12;;;;;;;15.93;9.40;;;42.80;40.40;;;;;;4973852;28;20022;-75
2021/07/26 07:55:38;;;;;;;21.67;9.93;;;42.80;40.70;;;;;;4991358;28;20061;-75
2021/07/26 07:58:05;;;;;;;18.20;9.57;;;42.80;40.60;;;;;;4991631;28;20030;-74
2021/07/26 08:00:31;;;;;;;16.40;11.35;;;42.60;40.60;;;;;;4991559;28;20031;-76
2021/07/26 08:02:57;;;;;;;22.88;10.52;;;42.20;40.50;;;;;;4991435;28;20030;-76
2021/07/26 08:05:22;;;;;;;19.45;10.35;;;41.70;41.30;;;;;;4991392;28;20109;-75
2021/07/26 08:07:48;;;;;;;28.20;11.38;;;41.30;41.80;;;;;;4991743;28;20038;-76
2021/07/26 08:10:15;;;;;;;24.95;12.38;;;41.20;42.50;;;;;;4991908;28;20022;-81
2021/07/26 08:12:42;;;;;;;31.10;13.40;;;41.20;42.80;;;;;;4999229;28;20041;-80
2021/07/26 08:15:09;;;;;;;20.80;12.10;;;40.90;43.20;;;;;;5000142;28;20022;-84
2021/07/26 08:17:42;;;;;;;14.00;9.93;;;40.70;43.30;;;;;;5000062;28;20026;-81
2021/07/26 08:20:16;;;;;;;23.50;12.88;;;40.30;43.70;;;;;;4999987;28;20433;-82
2021/07/26 08:22:42;;;;;;;21.63;13.50;;;39.80;43.80;;;;;;5000266;28;20030;-81
2021/07/26 08:25:11;;;;;;;25.25;10.80;;;39.30;44.20;;;;;;4999942;28;20480;-83
2021/07/26 08:27:56;;;;;;;22.35;14.00;;;38.80;45.30;;;;;;4999978;28;20097;-84
2021/07/26 08:30:33;;;;;;;28.35;14.50;;;38.30;45.30;;;;;;5000624;28;20058;-83
2021/07/26 08:33:00;;;;;;;21.00;12.27;;;37.80;45.70;;;;;;5000304;28;20026;-83
2021/07/26 08:35:26;;;;;;;21.60;11.80;;;37.40;46.30;;;;;;5000482;28;20125;-81
2021/07/26 08:37:53;;;;;;;18.35;12.00;;;36.80;47.30;;;;;;5000346;28;20405;-81
2021/07/26 08:40:20;;;;;;;17.33;11.75;;;36.70;48.40;;;;;;4982685;28;20472;-81
2021/07/26 08:42:46;;;;;;;20.23;12.43;;;36.30;49.00;;;;;;5000071;28;20031;-81
2021/07/26 08:45:12;;;;;;;15.75;13.23;;;35.80;49.70;;;;;;5000218;28;20026;-80
2021/07/26 08:47:43;;;;;;;24.27;14.27;;;35.30;51.20;;;;;;4999884;28;20110;-82
2021/07/26 08:50:11;;;;;;;20.00;14.10;;;35.10;51.20;;;;;;4999891;28;20790;-81
2021/07/26 08:52:45;;;;;;;24.20;14.75;;;34.90;51.30;;;;;;4999765;28;20436;-81
2021/07/26 08:55:16;;;;;;;20.25;14.05;;;34.70;51.30;;;;;;4999885;28;20069;-81
2021/07/26 08:57:46;;;;;;;20.33;13.63;;;34.70;51.50;;;;;;4998825;28;20030;-79
2021/07/26 09:00:15;;;;;;;19.05;12.85;;;34.80;51.60;;;;;;4998123;28;20061;-79
2021/07/26 09:02:41;;;;;;;22.02;12.10;;;34.80;51.20;;;;;;4998053;28;20485;-79
2021/07/26 09:05:08;;;;;;;23.50;11.98;;;34.90;51.50;;;;;;4980126;28;20033;-78
2021/07/26 09:07:38;;;;;;;18.35;12.50;;;34.90;51.60;;;;;;4998071;28;20027;-77
2021/07/26 09:10:24;;;;;;;18.75;12.25;;;35.00;51.60;;;;;;4998671;28;20019;-80
2021/07/26 09:12:52;;;;;;;25.77;12.93;;;34.80;51.90;;;;;;4998216;28;20473;-78
2021/07/26 09:15:27;;;;;;;20.17;12.23;;;34.60;51.70;;;;;;4997278;28;20476;-78
2021/07/26 09:17:54;;;;;;;15.02;10.40;;;34.30;51.90;;;;;;4997486;28;20019;-80
2021/07/26 09:20:20;;;;;;;17.90;10.55;;;34.20;50.90;;;;;;4997644;28;20034;-79
2021/07/26 09:22:47;;;;;;;16.00;10.68;;;34.20;50.90;;;;;;4994915;28;20026;-78
2021/07/26 09:25:15;;;;;;;18.92;10.27;;;34.20;50.50;;;;;;4995435;28;20018;-80
2021/07/26 09:27:57;;;;;;;15.20;9.52;;;34.30;50.40;;;;;;4994756;28;20381;-79
2021/07/26 09:30:24;;;;;;;13.35;10.73;;;34.40;49.10;;;;;;4994686;28;20030;-78
2021/07/26 09:32:50;;;;;;;16.00;10.48;;;34.40;49.00;;;;;;4995241;28;20018;-78
2021/07/26 09:35:21;;;;;;;17.27;9.35;;;34.30;48.80;;;;;;4994902;28;20022;-78
2021/07/26 09:38:00;;;;;;;16.58;9.38;;;34.30;48.90;;;;;;4994514;28;20038;-78
2021/07/26 09:40:32;;;;;;;13.23;8.63;;;34.40;49.20;;;;;;4994369;28;20037;-79
2021/07/26 09:43:18;;;;;;;13.07;8.82;;;34.30;47.40;;;;;;4994230;28;20030;-79
2021/07/26 09:45:44;;;;;;;16.42;9.52;;;34.20;46.70;;;;;;4994628;28;20037;-78
2021/07/26 09:48:12;;;;;;;13.88;9.05;;;34.10;46.50;;;;;;4994408;28;20026;-79
2021/07/26 09:50:49;;;;;;;17.98;9.07;;;34.10;46.80;;;;;;4994129;28;20035;-79
2021/07/26 09:53:19;;;;;;;17.60;9.90;;;34.00;46.50;;;;;;4995240;28;20125;-79
2021/07/26 09:55:47;;;;;;;16.13;8.63;;;33.90;46.40;;;;;;4995690;28;20084;-79
2021/07/26 09:58:15;;;;;;;15.38;9.90;;;33.60;46.60;;;;;;4994256;28;20476;-80
2021/07/26 10:00:42;;;;;;;13.90;9.43;;;33.50;47.40;;;;;;4994080;28;20467;-77
2021/07/26 10:03:11;;;;;;;12.85;8.88;;;33.50;47.50;;;;;;4993804;28;20026;-79
2021/07/26 10:05:38;;;;;;;13.23;9.13;;;33.50;47.20;;;;;;4993873;28;20063;-79
2021/07/26 10:08:05;;;;;;;15.40;8.82;;;33.50;46.50;;;;;;4994000;28;20038;-80
2021/07/26 10:10:36;;;;;;;14.45;7.88;;;33.30;46.10;;;;;;4975742;28;20469;-79
2021/07/26 10:13:03;;;;;;;15.23;9.05;;;33.20;45.80;;;;;;4993354;28;20027;-78
2021/07/26 10:15:31;;;;;;;13.93;7.50;;;33.20;45.50;;;;;;4993271;28;20030;-78
2021/07/26 10:17:57;;;;;;;16.80;8.57;;;33.50;45.50;;;;;;4976153;28;20524;-78
2021/07/26 10:20:26;;;;;;;13.98;7.97;;;33.70;45.10;;;;;;4993527;28;20081;-78
2021/07/26 10:23:04;;;;;;;10.63;7.53;;;33.80;44.40;;;;;;4993364;28;20023;-79
2021/07/26 10:25:58;;;;;;;14.77;8.05;;;33.80;43.80;;;;;;4993603;28;20077;-79
2021/07/26 10:28:29;;;;;;;12.85;7.88;;;33.60;43.60;;;;;;4990798;28;20061;-79
2021/07/26 10:30:56;;;;;;;9.95;7.47;;;33.50;43.60;;;;;;4993346;28;20038;-79
2021/07/26 10:33:22;;;;;;;16.20;7.60;;;33.50;43.60;;;;;;4993040;28;20123;-80
2021/07/26 10:35:50;;;;;;;19.48;13.18;;;33.40;43.40;;;;;;4992589;28;20532;-80
2021/07/26 10:38:44;;;;;;;8.23;6.97;;;33.30;43.60;;;;;;4992973;28;20018;-79
2021/07/26 10:41:30;;;;;;;10.32;7.30;;;33.40;43.70;;;;;;4975118;28;20034;-79
2021/07/26 10:43:59;;;;;;;12.02;7.10;;;33.40;43.50;;;;;;4992181;28;20073;-80
2021/07/26 10:46:25;;;;;;;10.13;7.57;;;33.30;43.60;;;;;;4993326;28;20392;-79
2021/07/26 10:48:52;;;;;;;15.75;7.13;;;33.30;43.80;;;;;;4993256;28;20027;-79
2021/07/26 10:51:39;;;;;;;9.30;7.15;;;33.30;43.90;;;;;;4992932;28;20043;-79
2021/07/26 10:54:07;;;;;;;8.77;7.00;;;33.30;43.70;;;;;;4993105;28;20500;-78
2021/07/26 10:57:18;;;;;;;10.80;7.15;;;33.10;44.10;;;;;;4993143;28;20029;-78
2021/07/26 11:00:05;;;;;;;13.80;8.05;;;32.90;44.10;;;;;;4962750;28;20057;-78
2021/07/26 11:02:41;;;;;;;9.65;7.20;;;32.90;44.20;;;;;;4995068;28;20484;-82
2021/07/26 11:05:28;;;;;;;12.10;7.57;;;32.80;44.30;;;;;;5001626;28;20048;-78
2021/07/26 11:08:12;;;;;;;13.88;8.15;;;32.70;44.70;;;;;;5003270;28;20460;-80
2021/07/26 11:10:48;;;;;;;11.90;7.57;;;32.80;45.00;;;;;;4993978;28;20037;-80
2021/07/26 11:13:15;;;;;;;16.88;8.30;;;32.80;44.80;;;;;;4992834;28;20548;-81
2021/07/26 11:15:51;;;;;;;12.10;8.63;;;32.70;44.90;;;;;;4992645;28;20172;-80
2021/07/26 11:18:18;;;;;;;14.10;8.15;;;32.70;45.20;;;;;;4992965;28;20018;-79
2021/07/26 11:21:02;;;;;;;12.93;8.15;;;32.70;45.20;;;;;;4975341;28;20034;-80
2021/07/26 11:23:47;;;;;;;11.98;7.07;;;32.90;45.10;;;;;;4992960;28;20104;-78
2021/07/26 11:26:22;;;;;;;14.18;7.75;;;32.90;44.60;;;;;;4992772;28;20465;-80
2021/07/26 11:28:50;;;;;;;11.98;8.00;;;33.00;44.60;;;;;;4992988;28;20456;-80
2021/07/26 11:31:24;;;;;;;19.85;8.40;;;33.10;44.50;;;;;;4993028;28;20358;-81
2021/07/26 11:33:52;;;;;;;14.38;6.68;;;33.20;44.40;;;;;;4993011;28;20034;-80
2021/07/26 11:36:18;;;;;;;11.98;7.25;;;33.10;44.10;;;;;;4993305;28;20033;-80
2021/07/26 11:38:54;;;;;;;8.15;7.15;;;33.00;44.70;;;;;;4992732;28;20037;-79
2021/07/26 11:41:22;;;;;;;9.52;7.53;;;32.90;44.90;;;;;;4992778;28;20041;-80
2021/07/26 11:43:48;;;;;;;11.80;7.30;;;32.80;44.40;;;;;;4992702;28;20130;-80
2021/07/26 11:46:14;;;;;;;10.45;6.40;;;32.70;44.40;;;;;;4992055;28;20027;-81
2021/07/26 11:48:40;;;;;;;15.35;6.82;;;32.70;44.60;;;;;;4992675;28;20092;-81
2021/07/26 11:51:26;;;;;;;13.85;6.90;;;32.60;44.80;;;;;;4992198;28;20153;-80
2021/07/26 11:54:04;;;;;;;9.98;6.78;;;32.50;44.70;;;;;;4992380;28;20389;-81
2021/07/26 11:56:30;;;;;;;12.98;6.43;;;32.50;44.80;;;;;;4992289;28;20027;-81
2021/07/26 11:59:19;;;;;;;12.50;5.97;;;32.40;45.30;;;;;;4992105;28;20049;-81
2021/07/26 12:01:57;;;;;;;10.13;5.80;;;32.30;45.00;;;;;;4992348;28;20023;-80
2021/07/26 12:04:29;;;;;;;13.70;6.85;;;32.30;45.00;;;;;;4992427;28;20080;-81
2021/07/26 12:07:06;;;;;;;16.20;7.55;;;32.30;45.10;;;;;;4992464;28;20033;-80
2021/07/26 12:09:34;;;;;;;13.07;6.90;;;32.20;46.20;;;;;;4991064;28;20373;-78
2021/07/26 12:12:13;;;;;;;16.33;7.90;;;32.10;45.80;;;;;;4991344;28;20775;-79
2021/07/26 12:14:41;;;;;;;15.15;7.13;;;32.00;46.80;;;;;;4991458;28;20519;-79
2021/07/26 12:17:11;;;;;;;8.20;6.15;;;31.90;46.50;;;;;;4991325;28;20027;-79
2021/07/26 12:19:42;;;;;;;8.60;5.20;;;31.80;45.30;;;;;;4991734;28;20037;-78
2021/07/26 12:22:13;;;;;;;13.02;6.18;;;31.70;44.00;;;;;;4991493;28;20027;-81
2021/07/26 12:24:47;;;;;;;9.55;5.75;;;31.70;44.20;;;;;;4991829;28;20037;-82
2021/07/26 12:27:34;;;;;;;14.60;6.25;;;31.60;43.90;;;;;;4991837;28;20061;-78
2021/07/26 12:30:03;;;;;;;13.93;6.35;;;31.60;44.00;;;;;;4977652;28;20037;-81
2021/07/26 12:32:48;;;;;;;13.35;6.28;;;31.50;44.10;;;;;;4996808;28;20717;-80
2021/07/26 12:35:24;;;;;;;8.23;6.03;;;31.40;44.30;;;;;;4994725;28;20832;-80
2021/07/26 12:38:19;;;;;;;11.50;6.20;;;31.40;43.80;;;;;;5005716;28;20475;-79
2021/07/26 12:41:02;;;;;;;9.23;6.90;;;31.30;43.90;;;;;;4990841;28;20030;-79
2021/07/26 12:43:27;;;;;;;9.35;6.22;;;31.30;43.90;;;;;;4991373;28;20085;-78